Time;durP1;ratioP1;P1;durP2;ratioP2;P2;SDS_P1;SDS_P2;PMS_P1;PMS_P2;Temp;Humidity;BMP_temperature;BMP_pressure;BME280_temperature;BME280_humidity;BME280_pressure;Samples;Min_cycle;Max_cycle;Signal;HPM_P1;HPM_P2
2024/01/19 00:01:26;;;;;;;36.55;12.52;;;0.50;99.90;;;;;;5051703;28;20123;-81
2024/01/19 00:03:52;;;;;;;33.50;12.23;;;0.50;99.90;;;;;;5061459;28;20028;-80
2024/01/19 00:06:18;;;;;;;26.00;9.73;;;0.50;99.90;;;;;;5062467;28;20580;-81
2024/01/19 00:08:44;;;;;;;19.63;8.35;;;0.50;99.90;;;;;;5055882;28;20021;-83
2024/01/19 00:11:14;;;;;;;16.40;7.30;;;0.50;99.90;;;;;;5055642;28;20456;-81
2024/01/19 00:13:40;;;;;;;18.73;7.38;;;0.50;99.90;;;;;;5063483;28;20045;-81
2024/01/19 00:16:06;;;;;;;24.30;9.35;;;0.50;99.90;;;;;;5059981;28;20031;-81
2024/01/19 00:18:32;;;;;;;21.35;9.25;;;0.50;99.90;;;;;;5055327;28;20032;-81
2024/01/19 00:20:57;;;;;;;21.58;8.07;;;0.50;99.90;;;;;;5060353;28;20031;-81
2024/01/19 00:23:23;;;;;;;28.58;9.88;;;0.50;99.90;;;;;;5063151;28;20417;-82
2024/01/19 00:25:49;;;;;;;25.90;9.35;;;0.50;99.90;;;;;;5054381;28;20082;-81
2024/01/19 00:28:15;;;;;;;23.02;8.93;;;0.50;99.90;;;;;;5056328;28;20062;-81
2024/01/19 00:30:40;;;;;;;22.75;9.35;;;0.60;99.90;;;;;;5063152;28;20017;-83
2024/01/19 00:33:06;;;;;;;13.50;5.50;;;0.60;99.90;;;;;;5059028;28;20082;-82
2024/01/19 00:35:32;;;;;;;11.77;5.55;;;0.60;99.90;;;;;;5054794;28;20826;-82
2024/01/19 00:37:57;;;;;;;11.93;6.57;;;0.60;99.90;;;;;;5058766;28;20033;-81
2024/01/19 00:40:24;;;;;;;11.10;5.43;;;0.60;99.90;;;;;;5063809;28;20028;-81
2024/01/19 00:42:49;;;;;;;16.73;5.50;;;0.60;99.90;;;;;;5061620;28;20055;-81
2024/01/19 00:45:15;;;;;;;18.02;5.57;;;0.60;99.90;;;;;;5061576;28;20024;-81
2024/01/19 00:47:41;;;;;;;9.20;4.03;;;0.70;99.90;;;;;;5053394;28;20056;-80
2024/01/19 00:50:08;;;;;;;9.38;3.92;;;0.70;99.90;;;;;;5055983;28;20103;-81
2024/01/19 00:52:34;;;;;;;12.35;4.20;;;0.70;99.90;;;;;;5054027;28;20036;-81
2024/01/19 00:55:00;;;;;;;10.80;4.05;;;0.70;99.90;;;;;;5062597;28;20025;-81
2024/01/19 00:57:25;;;;;;;8.90;3.10;;;0.70;99.90;;;;;;5059704;28;20027;-81
2024/01/19 00:59:51;;;;;;;7.78;3.17;;;0.80;99.90;;;;;;5052912;28;20031;-81
2024/01/19 01:02:16;;;;;;;4.88;2.20;;;0.80;99.90;;;;;;5059172;28;20028;-81
2024/01/19 01:04:42;;;;;;;5.30;2.67;;;0.90;99.90;;;;;;5061112;28;20501;-81
2024/01/19 01:07:10;;;;;;;6.88;2.78;;;0.90;99.90;;;;;;5055090;28;20029;-81
2024/01/19 01:09:36;;;;;;;5.47;2.13;;;1.00;99.90;;;;;;5054950;28;20024;-80
2024/01/19 01:12:02;;;;;;;5.00;2.42;;;1.00;99.90;;;;;;5061908;28;20047;-80
2024/01/19 01:14:28;;;;;;;8.10;2.40;;;1.10;99.90;;;;;;5059883;28;20040;-80
2024/01/19 01:16:54;;;;;;;7.18;3.03;;;1.10;99.90;;;;;;5052841;28;20069;-80
2024/01/19 01:19:19;;;;;;;5.28;2.85;;;1.20;99.90;;;;;;5058983;28;20477;-80
2024/01/19 01:21:45;;;;;;;6.13;2.83;;;1.20;99.90;;;;;;5061600;28;20028;-80
2024/01/19 01:24:11;;;;;;;8.30;3.30;;;1.20;99.90;;;;;;5055266;28;20518;-80
2024/01/19 01:26:36;;;;;;;6.55;2.72;;;1.30;99.90;;;;;;5052908;28;20450;-80
2024/01/19 01:29:02;;;;;;;9.35;2.70;;;1.30;99.90;;;;;;5061985;28;20220;-80
2024/01/19 01:31:28;;;;;;;6.38;3.00;;;1.30;99.90;;;;;;5058878;28;20024;-80
2024/01/19 01:33:53;;;;;;;7.20;3.03;;;1.30;99.90;;;;;;5053540;28;20508;-81
2024/01/19 01:36:19;;;;;;;4.50;2.42;;;1.30;99.90;;;;;;5058181;28;20032;-81
2024/01/19 01:38:45;;;;;;;7.88;2.40;;;1.30;99.90;;;;;;5061695;28;20551;-80
2024/01/19 01:41:12;;;;;;;7.60;2.60;;;1.30;99.90;;;;;;5059635;28;20028;-81
2024/01/19 01:43:37;;;;;;;4.80;2.45;;;1.30;99.90;;;;;;5067703;28;20111;-81
2024/01/19 01:46:03;;;;;;;5.97;2.55;;;1.30;99.90;;;;;;5053013;28;20128;-81
2024/01/19 01:48:29;;;;;;;6.40;2.33;;;1.30;99.90;;;;;;5063962;28;20523;-81
2024/01/19 01:50:56;;;;;;;4.80;1.95;;;1.30;99.90;;;;;;5052291;28;20028;-81
2024/01/19 01:53:22;;;;;;;4.25;1.98;;;1.30;99.90;;;;;;5061357;28;20608;-81
2024/01/19 01:55:49;;;;;;;3.13;1.75;;;1.40;99.90;;;;;;5058795;28;20117;-80
2024/01/19 01:58:18;;;;;;;2.58;1.48;;;1.40;99.90;;;;;;5053194;28;20020;-80
2024/01/19 02:00:45;;;;;;;4.03;1.73;;;1.40;99.90;;;;;;5057148;28;20032;-80
2024/01/19 02:03:11;;;;;;;4.50;1.67;;;1.40;99.90;;;;;;5060998;28;20033;-80
2024/01/19 02:05:37;;;;;;;3.63;1.85;;;1.40;99.90;;;;;;5055850;28;20032;-80
2024/01/19 02:08:03;;;;;;;4.40;1.85;;;1.40;99.90;;;;;;5051385;28;20024;-80
2024/01/19 02:10:29;;;;;;;5.85;1.75;;;1.30;99.90;;;;;;5060354;28;20572;-81
2024/01/19 02:12:55;;;;;;;6.10;1.88;;;1.30;99.90;;;;;;5059182;28;20119;-81
2024/01/19 02:15:26;;;;;;;4.82;1.70;;;1.30;99.90;;;;;;5052951;28;20577;-81
2024/01/19 02:17:52;;;;;;;2.58;1.58;;;1.20;99.90;;;;;;5055676;28;20029;-81
2024/01/19 02:20:19;;;;;;;4.25;1.50;;;1.20;99.90;;;;;;5061079;28;20618;-81
2024/01/19 02:22:46;;;;;;;3.40;1.35;;;1.20;99.90;;;;;;5055880;28;20044;-81
2024/01/19 02:25:12;;;;;;;4.85;1.50;;;1.10;99.90;;;;;;5051447;28;20041;-82
2024/01/19 02:27:38;;;;;;;1.55;1.20;;;1.20;99.90;;;;;;5058799;28;20742;-81
2024/01/19 02:30:08;;;;;;;1.73;1.00;;;1.20;99.90;;;;;;5060812;28;20017;-81
2024/01/19 02:32:34;;;;;;;1.70;0.90;;;1.10;99.90;;;;;;5053048;28;20024;-81
2024/01/19 02:35:00;;;;;;;2.53;1.13;;;1.10;99.90;;;;;;5054351;28;20032;-81
2024/01/19 02:37:25;;;;;;;3.10;1.42;;;1.20;99.90;;;;;;5060619;28;20017;-81
2024/01/19 02:39:51;;;;;;;3.10;1.83;;;1.10;99.90;;;;;;5057101;28;20481;-80
2024/01/19 02:42:17;;;;;;;2.95;1.77;;;1.00;99.90;;;;;;5064002;28;20032;-80
2024/01/19 02:44:42;;;;;;;3.25;1.80;;;1.00;99.90;;;;;;5053682;28;20050;-81
2024/01/19 02:47:08;;;;;;;7.13;2.45;;;0.90;99.90;;;;;;5050680;28;20029;-81
2024/01/19 02:49:33;;;;;;;7.38;2.63;;;0.90;99.90;;;;;;5052664;28;20358;-81
2024/01/19 02:51:59;;;;;;;5.28;2.47;;;0.90;99.90;;;;;;5057933;28;20493;-81
2024/01/19 02:54:25;;;;;;;6.82;2.72;;;0.90;99.90;;;;;;5060823;28;20037;-81
2024/01/19 02:56:50;;;;;;;7.53;3.58;;;0.90;99.90;;;;;;5052804;28;20499;-81
2024/01/19 02:59:16;;;;;;;6.65;3.60;;;0.90;99.90;;;;;;5054515;28;20584;-81
2024/01/19 03:01:42;;;;;;;9.80;3.88;;;0.80;99.90;;;;;;5049280;28;20021;-81
2024/01/19 03:04:08;;;;;;;9.68;4.57;;;0.90;99.90;;;;;;5056144;28;20115;-81
2024/01/19 03:06:33;;;;;;;7.95;4.28;;;0.80;99.90;;;;;;5060437;28;20754;-81
2024/01/19 03:08:59;;;;;;;9.77;4.35;;;0.80;99.90;;;;;;5054719;28;20031;-80
2024/01/19 03:11:24;;;;;;;11.95;4.20;;;0.80;99.90;;;;;;5052023;28;20469;-81
2024/01/19 03:13:52;;;;;;;10.95;4.90;;;0.80;99.90;;;;;;5060016;28;20187;-81
2024/01/19 03:16:19;;;;;;;9.65;5.30;;;0.80;99.90;;;;;;5058861;28;20025;-81
2024/01/19 03:18:45;;;;;;;8.85;4.65;;;0.70;99.90;;;;;;5052565;28;20025;-80
2024/01/19 03:21:12;;;;;;;11.20;4.35;;;0.70;99.90;;;;;;5055678;28;20072;-81
2024/01/19 03:23:38;;;;;;;9.40;5.55;;;0.70;99.90;;;;;;5060270;28;20053;-81
2024/01/19 03:26:04;;;;;;;9.50;5.72;;;0.70;99.90;;;;;;5055254;28;20013;-81
2024/01/19 03:28:30;;;;;;;8.68;5.50;;;0.70;99.90;;;;;;5052511;28;20147;-81
2024/01/19 03:30:56;;;;;;;12.48;5.90;;;0.70;99.90;;;;;;5058137;28;20112;-81
2024/01/19 03:33:21;;;;;;;11.02;5.30;;;0.70;99.90;;;;;;5046340;28;20182;-81
2024/01/19 03:35:47;;;;;;;14.32;5.65;;;0.70;99.90;;;;;;5058973;28;20533;-80
2024/01/19 03:38:13;;;;;;;17.85;7.22;;;0.60;99.90;;;;;;5050588;28;20021;-81
2024/01/19 03:40:38;;;;;;;10.25;6.05;;;0.60;99.90;;;;;;5064309;28;20020;-81
2024/01/19 03:43:04;;;;;;;17.63;6.07;;;0.60;99.90;;;;;;5061015;28;20088;-81
2024/01/19 03:45:30;;;;;;;11.77;5.72;;;0.60;99.90;;;;;;5064191;28;20518;-82
2024/01/19 03:47:55;;;;;;;11.70;5.40;;;0.60;99.90;;;;;;5053472;28;20098;-81
2024/01/19 03:50:22;;;;;;;13.60;6.32;;;0.60;99.90;;;;;;5059101;28;20039;-81
2024/01/19 03:52:48;;;;;;;11.52;5.97;;;0.60;99.90;;;;;;5055245;28;20033;-81
2024/01/19 03:55:15;;;;;;;9.70;5.50;;;0.60;99.90;;;;;;5062938;28;20108;-81
2024/01/19 03:57:41;;;;;;;14.48;6.32;;;0.60;99.90;;;;;;5062879;28;20040;-81
2024/01/19 04:00:08;;;;;;;11.25;5.95;;;0.60;99.90;;;;;;5055781;28;20025;-81
2024/01/19 04:02:34;;;;;;;10.45;6.00;;;0.60;99.90;;;;;;5058183;28;20032;-81
2024/01/19 04:05:00;;;;;;;10.15;5.55;;;0.50;99.90;;;;;;5063587;28;20043;-81
2024/01/19 04:07:26;;;;;;;8.55;5.47;;;0.50;99.90;;;;;;5058883;28;20557;-82
2024/01/19 04:09:51;;;;;;;9.57;5.93;;;0.50;99.90;;;;;;5055491;28;20043;-81
2024/01/19 04:12:17;;;;;;;7.53;5.32;;;0.50;99.90;;;;;;5061467;28;20090;-81
2024/01/19 04:14:44;;;;;;;11.68;5.85;;;0.50;99.90;;;;;;5063021;28;20083;-81
2024/01/19 04:17:11;;;;;;;12.43;5.80;;;0.40;99.90;;;;;;5054942;28;20062;-81
2024/01/19 04:19:38;;;;;;;10.00;5.65;;;0.40;99.90;;;;;;5069343;28;20314;-81
2024/01/19 04:22:04;;;;;;;12.90;5.13;;;0.40;99.90;;;;;;5054645;28;20016;-82
2024/01/19 04:24:30;;;;;;;9.70;4.97;;;0.40;99.90;;;;;;5059231;28;20041;-82
2024/01/19 04:26:56;;;;;;;11.50;5.32;;;0.40;99.90;;;;;;5063111;28;20028;-81
2024/01/19 04:29:22;;;;;;;7.20;4.97;;;0.40;99.90;;;;;;5057227;28;20410;-81
2024/01/19 04:31:47;;;;;;;12.93;5.15;;;0.40;99.90;;;;;;5053478;28;20037;-81
2024/01/19 04:34:13;;;;;;;11.75;4.72;;;0.40;99.90;;;;;;5055055;28;20031;-82
2024/01/19 04:36:39;;;;;;;10.13;4.90;;;0.40;99.90;;;;;;5056903;28;20032;-81
2024/01/19 04:39:04;;;;;;;9.48;4.72;;;0.50;99.90;;;;;;5062731;28;20106;-82
2024/01/19 04:41:31;;;;;;;14.50;5.32;;;0.40;99.90;;;;;;5058608;28;20143;-82
2024/01/19 04:43:57;;;;;;;8.90;4.72;;;0.40;99.90;;;;;;5054701;28;20029;-82
2024/01/19 04:46:22;;;;;;;9.45;4.45;;;0.40;99.90;;;;;;5060643;28;20021;-82
2024/01/19 04:48:48;;;;;;;8.43;4.28;;;0.50;99.90;;;;;;5052532;28;20036;-81
2024/01/19 04:51:14;;;;;;;10.15;4.97;;;0.60;99.90;;;;;;5061542;28;20050;-82
2024/01/19 04:53:39;;;;;;;7.85;4.30;;;0.60;99.90;;;;;;5056546;28;20028;-82
2024/01/19 04:56:08;;;;;;;11.50;4.93;;;0.60;99.90;;;;;;5054677;28;20107;-82
2024/01/19 04:58:37;;;;;;;11.68;4.65;;;0.60;99.90;;;;;;5061806;28;20135;-83
2024/01/19 05:01:04;;;;;;;9.95;4.53;;;0.60;99.90;;;;;;5061510;28;20352;-81
2024/01/19 05:03:30;;;;;;;11.25;4.80;;;0.60;99.90;;;;;;5054136;28;20031;-82
2024/01/19 05:05:56;;;;;;;10.73;4.50;;;0.60;99.90;;;;;;5057322;28;20547;-82
2024/01/19 05:08:22;;;;;;;9.40;5.05;;;0.60;99.90;;;;;;5062188;28;20029;-82
2024/01/19 05:10:47;;;;;;;9.55;4.75;;;0.60;99.90;;;;;;5056021;28;20025;-83
2024/01/19 05:13:13;;;;;;;12.57;4.63;;;0.70;99.90;;;;;;5054035;28;20028;-82
2024/01/19 05:15:39;;;;;;;7.82;4.28;;;0.60;99.90;;;;;;5064432;28;20111;-82
2024/01/19 05:18:05;;;;;;;9.18;4.78;;;0.60;99.90;;;;;;5054618;28;20167;-81
2024/01/19 05:20:31;;;;;;;10.05;4.53;;;0.70;99.90;;;;;;5053370;28;20483;-82
2024/01/19 05:22:57;;;;;;;10.20;4.43;;;0.70;99.90;;;;;;5056207;28;20110;-82
2024/01/19 05:25:23;;;;;;;7.57;4.68;;;0.70;99.90;;;;;;5060999;28;20025;-82
2024/01/19 05:27:53;;;;;;;8.68;4.90;;;0.70;99.90;;;;;;5056703;28;20112;-82
2024/01/19 05:30:28;;;;;;;8.90;3.78;;;0.70;99.90;;;;;;5058802;28;20052;-82
2024/01/19 05:32:54;;;;;;;7.10;3.92;;;0.70;99.90;;;;;;5057518;28;20048;-82
2024/01/19 05:35:19;;;;;;;9.48;4.43;;;0.70;99.90;;;;;;5060913;28;20481;-82
2024/01/19 05:37:45;;;;;;;7.97;4.28;;;0.70;99.90;;;;;;5054388;28;20028;-82
2024/01/19 05:40:11;;;;;;;8.70;3.80;;;0.70;99.90;;;;;;5060473;28;20398;-83
2024/01/19 05:42:36;;;;;;;11.60;4.60;;;0.70;99.90;;;;;;5062867;28;20033;-82
2024/01/19 05:45:03;;;;;;;10.20;4.53;;;0.70;99.90;;;;;;5059272;28;20024;-82
2024/01/19 05:47:29;;;;;;;10.32;3.67;;;0.70;99.90;;;;;;5052518;28;20116;-82
2024/01/19 05:49:55;;;;;;;9.43;4.72;;;0.70;99.90;;;;;;5053983;28;20123;-82
2024/01/19 05:52:20;;;;;;;8.43;4.03;;;0.70;99.90;;;;;;5057212;28;20025;-82
2024/01/19 05:54:46;;;;;;;11.13;5.35;;;0.70;99.90;;;;;;5060834;28;20060;-83
2024/01/19 05:57:11;;;;;;;10.30;4.22;;;0.70;99.90;;;;;;5055853;28;20036;-82
2024/01/19 05:59:40;;;;;;;9.75;4.38;;;0.60;99.90;;;;;;5054806;28;20943;-82
2024/01/19 06:02:06;;;;;;;10.95;4.00;;;0.60;99.90;;;;;;5061703;28;20025;-82
2024/01/19 06:04:33;;;;;;;8.02;4.38;;;0.70;99.90;;;;;;5061424;28;20699;-82
2024/01/19 06:06:59;;;;;;;8.55;3.72;;;0.70;99.90;;;;;;5052516;28;20031;-83
2024/01/19 06:09:25;;;;;;;8.23;4.05;;;0.70;99.90;;;;;;5057725;28;20524;-83
2024/01/19 06:11:51;;;;;;;8.05;3.60;;;0.70;99.90;;;;;;5062565;28;20025;-83
2024/01/19 06:14:16;;;;;;;11.65;3.80;;;0.70;99.90;;;;;;5059964;28;20517;-83
2024/01/19 06:16:42;;;;;;;6.82;3.42;;;0.70;99.90;;;;;;5057067;28;20037;-83
2024/01/19 06:19:08;;;;;;;8.73;3.70;;;0.70;99.90;;;;;;5064447;28;20060;-83
2024/01/19 06:21:34;;;;;;;8.95;3.67;;;0.60;99.90;;;;;;5063204;28;20020;-82
2024/01/19 06:23:59;;;;;;;8.65;3.65;;;0.70;99.90;;;;;;5055727;28;20829;-83
2024/01/19 06:26:27;;;;;;;7.68;3.88;;;0.70;99.90;;;;;;5056596;28;20024;-83
2024/01/19 06:28:53;;;;;;;8.25;3.90;;;0.70;99.90;;;;;;5060328;28;20091;-82
2024/01/19 06:31:18;;;;;;;8.02;4.35;;;0.70;99.90;;;;;;5060764;28;20036;-83
2024/01/19 06:33:46;;;;;;;8.07;3.90;;;0.70;99.90;;;;;;5055173;28;20017;-83
2024/01/19 06:36:11;;;;;;;7.05;3.83;;;0.70;99.90;;;;;;5060514;28;20033;-84
2024/01/19 06:38:37;;;;;;;8.65;3.97;;;0.70;99.90;;;;;;5062577;28;20611;-84
2024/01/19 06:41:03;;;;;;;10.80;4.38;;;0.70;99.90;;;;;;5060650;28;20449;-83
2024/01/19 06:43:29;;;;;;;11.90;5.15;;;0.70;99.90;;;;;;5056128;28;20025;-84
2024/01/19 06:45:55;;;;;;;13.45;4.88;;;0.70;99.90;;;;;;5062526;28;20386;-84
2024/01/19 06:48:21;;;;;;;9.80;4.70;;;0.70;99.90;;;;;;5051752;28;20021;-83
2024/01/19 06:50:46;;;;;;;8.10;4.88;;;0.70;99.90;;;;;;5059881;28;20021;-83
2024/01/19 06:53:12;;;;;;;10.68;4.78;;;0.70;99.90;;;;;;5052853;28;20025;-83
2024/01/19 06:55:38;;;;;;;13.27;5.55;;;0.70;99.90;;;;;;5060832;28;20031;-84
2024/01/19 06:58:03;;;;;;;11.95;6.70;;;0.60;99.90;;;;;;5056017;28;20510;-83
2024/01/19 07:00:29;;;;;;;11.50;6.40;;;0.60;99.90;;;;;;5066346;28;20035;-83
2024/01/19 07:02:55;;;;;;;14.20;7.00;;;0.60;99.90;;;;;;5063839;28;20024;-84
2024/01/19 07:05:20;;;;;;;13.40;6.97;;;0.50;99.90;;;;;;5063788;28;20024;-83
2024/01/19 07:07:46;;;;;;;16.95;8.65;;;0.50;99.90;;;;;;5058530;28;20103;-84
2024/01/19 07:10:11;;;;;;;18.60;8.20;;;0.50;99.90;;;;;;5061114;28;20383;-88
2024/01/19 07:12:37;;;;;;;15.68;6.70;;;0.40;99.90;;;;;;5058721;28;20032;-86
2024/01/19 07:15:06;;;;;;;14.40;7.30;;;0.40;99.90;;;;;;5062037;28;20196;-87
2024/01/19 07:17:31;;;;;;;11.82;6.90;;;0.40;99.90;;;;;;5073188;28;20028;-86
2024/01/19 07:19:59;;;;;;;15.20;7.93;;;0.40;99.90;;;;;;5072788;28;20029;-87
2024/01/19 07:22:27;;;;;;;18.00;8.38;;;0.40;99.90;;;;;;5072058;28;20016;-87
2024/01/19 07:24:54;;;;;;;17.38;8.25;;;0.30;99.90;;;;;;5072411;28;20588;-87
2024/01/19 07:27:20;;;;;;;19.50;8.25;;;0.30;99.90;;;;;;5067081;28;20060;-87
2024/01/19 07:29:45;;;;;;;14.10;7.15;;;0.30;99.90;;;;;;5073150;28;20020;-87
2024/01/19 07:32:11;;;;;;;13.23;6.68;;;0.30;99.90;;;;;;5073173;28;20042;-87
2024/01/19 07:34:36;;;;;;;16.98;7.70;;;0.20;99.90;;;;;;5064294;28;20048;-88
2024/01/19 07:37:02;;;;;;;12.43;6.75;;;0.20;99.90;;;;;;5067998;28;20063;-87
2024/01/19 07:39:28;;;;;;;13.50;7.07;;;0.20;99.90;;;;;;5071730;28;20056;-88
2024/01/19 07:41:54;;;;;;;13.88;7.13;;;0.20;99.90;;;;;;5060012;28;20035;-88
2024/01/19 07:44:19;;;;;;;9.80;6.57;;;0.20;99.90;;;;;;5071170;28;20391;-87
2024/01/19 07:46:45;;;;;;;26.92;8.90;;;0.10;99.90;;;;;;5060095;28;20031;-88
2024/01/19 07:49:11;;;;;;;11.32;6.47;;;0.10;99.90;;;;;;5070783;28;20451;-89
2024/01/19 07:51:37;;;;;;;13.77;6.93;;;0.10;99.90;;;;;;5073318;28;20016;-89
2024/01/19 07:54:03;;;;;;;14.38;6.70;;;0.10;99.90;;;;;;5073335;28;20032;-89
2024/01/19 07:56:29;;;;;;;13.65;6.63;;;0.20;99.90;;;;;;5073760;28;20035;-88
2024/01/19 07:58:55;;;;;;;13.02;6.25;;;0.20;99.90;;;;;;5063527;28;20116;-89
2024/01/19 08:01:21;;;;;;;14.65;7.13;;;0.10;99.90;;;;;;5069529;28;20029;-90
2024/01/19 08:03:47;;;;;;;15.20;7.10;;;0.10;99.90;;;;;;5073450;28;20032;-89
2024/01/19 08:06:13;;;;;;;22.40;8.60;;;0.10;99.90;;;;;;5067960;28;20040;-91
2024/01/19 08:08:38;;;;;;;13.30;7.97;;;0.10;99.90;;;;;;5064644;28;20017;-91
2024/01/19 08:11:04;;;;;;;12.20;7.22;;;0.10;99.90;;;;;;5066283;28;20525;-90
2024/01/19 08:13:29;;;;;;;14.93;7.93;;;0.00;99.90;;;;;;5062852;28;20025;-88
2024/01/19 08:15:55;;;;;;;14.32;8.05;;;0.00;99.90;;;;;;5070806;28;20035;-90
2024/01/19 08:18:21;;;;;;;14.77;7.90;;;0.00;99.90;;;;;;5073787;28;20120;-91
2024/01/19 08:20:46;;;;;;;16.17;9.00;;;0.00;99.90;;;;;;5073694;28;20040;-91
2024/01/19 08:23:12;;;;;;;15.68;8.23;;;0.10;99.90;;;;;;5073609;28;20037;-91
2024/01/19 08:25:37;;;;;;;15.40;8.70;;;0.10;99.90;;;;;;5068541;28;20475;-90
2024/01/19 08:28:03;;;;;;;16.27;9.05;;;0.10;99.90;;;;;;5070590;28;20059;-90
2024/01/19 08:30:29;;;;;;;14.23;8.38;;;0.10;99.90;;;;;;5083361;28;20035;-91
2024/01/19 08:32:55;;;;;;;19.02;8.80;;;0.20;99.90;;;;;;5073350;28;20692;-90
2024/01/19 08:35:22;;;;;;;17.08;7.72;;;0.30;99.90;;;;;;5080552;28;20021;-91
2024/01/19 08:37:47;;;;;;;19.13;9.40;;;0.30;99.90;;;;;;5067999;28;20043;-89
2024/01/19 08:40:13;;;;;;;20.33;9.50;;;0.30;99.90;;;;;;5078974;28;20032;-89
2024/01/19 08:42:39;;;;;;;18.75;9.60;;;0.30;99.90;;;;;;5067152;28;20036;-88
2024/01/19 08:45:06;;;;;;;21.65;9.32;;;0.30;99.90;;;;;;5071678;28;20539;-89
2024/01/19 08:47:32;;;;;;;18.50;9.77;;;0.30;99.90;;;;;;5057481;28;20017;-88
2024/01/19 08:49:59;;;;;;;17.35;9.43;;;0.40;99.90;;;;;;5057643;28;20017;-87
2024/01/19 08:52:27;;;;;;;23.73;11.18;;;0.40;99.90;;;;;;5070776;28;20111;-89
2024/01/19 08:54:52;;;;;;;22.60;11.15;;;0.40;99.90;;;;;;5061567;28;20144;-88
2024/01/19 08:57:18;;;;;;;21.08;11.50;;;0.40;99.90;;;;;;5070262;28;20115;-87
2024/01/19 08:59:45;;;;;;;24.63;11.10;;;0.40;99.90;;;;;;5058746;28;20630;-85
2024/01/19 09:02:11;;;;;;;20.73;11.55;;;0.50;99.90;;;;;;5054782;28;20092;-89
2024/01/19 09:04:38;;;;;;;27.17;11.35;;;0.50;99.90;;;;;;5064610;28;20116;-92
2024/01/19 09:07:04;;;;;;;23.70;11.93;;;0.50;99.90;;;;;;5075353;28;20040;-94
2024/01/19 09:09:30;;;;;;;22.63;11.82;;;0.50;99.90;;;;;;5080617;28;20051;-96
2024/01/19 09:11:56;;;;;;;28.30;11.50;;;0.50;99.90;;;;;;5069233;28;20115;-91
2024/01/19 09:14:23;;;;;;;22.40;12.90;;;0.50;99.90;;;;;;5070983;28;20103;-91
2024/01/19 09:16:48;;;;;;;23.90;12.73;;;0.50;99.90;;;;;;5065285;28;20029;-86
2024/01/19 09:19:14;;;;;;;22.85;12.82;;;0.60;99.90;;;;;;5071224;28;20172;-89
2024/01/19 09:21:44;;;;;;;28.90;13.55;;;0.60;99.90;;;;;;5062719;28;20035;-86
2024/01/19 09:24:13;;;;;;;25.83;13.20;;;0.60;99.90;;;;;;5050959;28;20522;-84
2024/01/19 09:26:39;;;;;;;27.55;14.60;;;0.60;99.90;;;;;;5063543;28;20020;-86
2024/01/19 09:29:05;;;;;;;26.48;14.15;;;0.60;99.90;;;;;;5065558;28;20020;-88
2024/01/19 09:31:30;;;;;;;29.08;14.00;;;0.50;99.90;;;;;;5067677;28;20020;-86
2024/01/19 09:33:56;;;;;;;35.92;15.02;;;0.50;99.90;;;;;;5054679;28;20041;-86
2024/01/19 09:36:22;;;;;;;33.33;15.13;;;0.50;99.90;;;;;;5059580;28;20059;-85
2024/01/19 09:38:47;;;;;;;37.53;16.05;;;0.50;99.90;;;;;;5056383;28;20017;-87
2024/01/19 09:41:25;;;;;;;33.00;15.63;;;0.50;99.90;;;;;;5060700;28;20501;-87
2024/01/19 09:43:54;;;;;;;33.25;17.02;;;0.50;99.90;;;;;;5064333;28;20044;-92
2024/01/19 09:46:29;;;;;;;26.50;14.73;;;0.60;99.90;;;;;;5068260;28;20119;-88
2024/01/19 09:49:02;;;;;;;28.17;15.75;;;0.60;99.90;;;;;;5064989;28;20063;-89
2024/01/19 09:51:42;;;;;;;24.38;15.52;;;0.60;99.90;;;;;;5069632;28;20021;-89
2024/01/19 09:54:10;;;;;;;30.38;16.10;;;0.60;99.90;;;;;;5071339;28;20024;-91
2024/01/19 09:56:36;;;;;;;30.63;14.35;;;0.60;99.90;;;;;;5072343;28;20528;-93
2024/01/19 09:59:06;;;;;;;28.50;15.63;;;0.60;99.90;;;;;;5064223;28;20050;-92
2024/01/19 10:01:32;;;;;;;25.20;15.18;;;0.60;99.90;;;;;;5069858;28;20028;-90
2024/01/19 10:04:00;;;;;;;29.58;15.38;;;0.70;99.90;;;;;;5068514;28;20090;-86
2024/01/19 10:06:26;;;;;;;23.58;12.98;;;0.70;99.90;;;;;;5067756;28;20024;-86
2024/01/19 10:08:55;;;;;;;24.23;13.18;;;0.80;99.90;;;;;;5067313;28;20514;-86
2024/01/19 10:11:22;;;;;;;27.67;13.82;;;0.90;99.90;;;;;;5056307;28;20050;-85
2024/01/19 10:13:48;;;;;;;24.40;12.43;;;0.90;99.90;;;;;;5053709;28;20056;-84
2024/01/19 10:16:13;;;;;;;22.92;13.13;;;0.90;99.90;;;;;;5056478;28;20067;-84
2024/01/19 10:18:41;;;;;;;23.25;12.40;;;1.00;99.90;;;;;;5061502;28;20031;-83
2024/01/19 10:21:07;;;;;;;21.17;12.13;;;1.00;99.90;;;;;;5056074;28;20032;-83
2024/01/19 10:23:33;;;;;;;23.25;13.07;;;1.00;99.90;;;;;;5052496;28;20041;-82
2024/01/19 10:26:12;;;;;;;23.00;12.07;;;1.10;99.90;;;;;;5057907;28;20385;-81
2024/01/19 10:28:39;;;;;;;30.45;12.45;;;1.10;99.90;;;;;;5060714;28;20036;-82
2024/01/19 10:31:26;;;;;;;24.80;12.43;;;1.20;99.90;;;;;;5054981;28;20828;-81
2024/01/19 10:33:53;;;;;;;20.67;12.25;;;1.30;99.90;;;;;;5052526;28;20535;-81
2024/01/19 10:36:19;;;;;;;20.83;11.32;;;1.40;99.90;;;;;;5057829;28;20498;-82
2024/01/19 10:38:46;;;;;;;20.45;12.18;;;1.50;99.90;;;;;;5059031;28;20024;-80
2024/01/19 10:41:26;;;;;;;24.60;11.68;;;1.50;99.90;;;;;;5060397;28;20021;-81
2024/01/19 10:43:52;;;;;;;21.67;11.18;;;1.60;99.90;;;;;;5050860;28;20029;-81
2024/01/19 10:46:19;;;;;;;25.25;11.82;;;1.70;99.90;;;;;;5066222;28;20027;-81
2024/01/19 10:48:46;;;;;;;19.95;10.95;;;1.80;99.90;;;;;;5060800;28;20496;-81
2024/01/19 10:51:13;;;;;;;30.30;11.15;;;1.90;99.90;;;;;;5052793;28;20021;-81
2024/01/19 10:53:39;;;;;;;20.02;11.32;;;2.00;99.90;;;;;;5057865;28;20021;-80
2024/01/19 10:56:04;;;;;;;22.77;10.35;;;2.10;99.90;;;;;;5060732;28;20074;-80
2024/01/19 10:58:33;;;;;;;16.27;9.85;;;2.20;99.90;;;;;;5060493;28;20613;-79
2024/01/19 11:01:16;;;;;;;21.27;10.60;;;2.20;99.90;;;;;;5059843;28;20374;-79
2024/01/19 11:03:45;;;;;;;18.50;10.27;;;2.30;99.90;;;;;;5054091;28;20082;-79
2024/01/19 11:06:11;;;;;;;18.60;10.15;;;2.40;99.90;;;;;;5054589;28;20019;-79
2024/01/19 11:08:38;;;;;;;17.92;9.27;;;2.40;99.90;;;;;;5060712;28;20563;-79
2024/01/19 11:11:05;;;;;;;22.17;10.45;;;2.50;99.90;;;;;;5057812;28;20028;-79
2024/01/19 11:13:38;;;;;;;17.58;9.27;;;2.50;99.90;;;;;;5051245;28;20051;-78
2024/01/19 11:16:11;;;;;;;14.95;8.05;;;2.60;99.90;;;;;;5056733;28;20029;-78
2024/01/19 11:18:37;;;;;;;19.98;8.68;;;2.70;99.90;;;;;;5060799;28;20055;-78
2024/01/19 11:21:03;;;;;;;18.85;8.70;;;2.80;99.90;;;;;;5054368;28;20024;-78
2024/01/19 11:23:29;;;;;;;17.48;8.48;;;2.90;99.90;;;;;;5052034;28;20123;-77
2024/01/19 11:26:30;;;;;;;13.32;8.10;;;2.90;99.90;;;;;;5057362;28;20049;-77
2024/01/19 11:29:03;;;;;;;19.95;8.63;;;3.00;99.90;;;;;;5059955;28;20061;-77
2024/01/19 11:31:32;;;;;;;14.40;7.90;;;3.20;99.90;;;;;;5056713;28;20029;-77
2024/01/19 11:33:58;;;;;;;14.57;7.97;;;3.30;99.90;;;;;;5055294;28;20020;-77
2024/01/19 11:36:39;;;;;;;14.07;7.63;;;3.40;99.90;;;;;;5064974;28;20514;-77
2024/01/19 11:39:05;;;;;;;18.48;7.18;;;3.60;99.90;;;;;;5050044;28;20029;-77
2024/01/19 11:41:34;;;;;;;14.25;6.22;;;3.70;99.90;;;;;;5056211;28;20021;-78
2024/01/19 11:44:04;;;;;;;18.60;6.90;;;3.80;99.90;;;;;;5064327;28;20025;-78
2024/01/19 11:46:47;;;;;;;10.82;6.18;;;3.90;99.90;;;;;;5058010;28;20013;-78
2024/01/19 11:49:32;;;;;;;9.55;5.53;;;4.00;99.90;;;;;;5057906;28;20028;-78
2024/01/19 11:51:59;;;;;;;14.00;5.60;;;4.10;99.90;;;;;;5060147;28;20039;-78
2024/01/19 11:54:29;;;;;;;14.88;5.65;;;4.10;99.90;;;;;;5057845;28;20052;-77
2024/01/19 11:57:17;;;;;;;13.48;5.78;;;4.20;99.90;;;;;;5047125;28;20056;-79
2024/01/19 11:59:44;;;;;;;9.82;5.63;;;4.30;99.90;;;;;;5046045;28;20036;-78
2024/01/19 12:02:34;;;;;;;13.02;5.18;;;4.40;99.90;;;;;;5050168;28;20057;-78
2024/01/19 12:05:08;;;;;;;15.55;5.35;;;4.40;99.90;;;;;;5050970;28;20021;-78
2024/01/19 12:07:34;;;;;;;10.50;5.15;;;4.50;99.90;;;;;;5061664;28;20141;-79
2024/01/19 12:10:19;;;;;;;11.63;4.68;;;4.60;99.90;;;;;;5068493;28;20650;-80
2024/01/19 12:12:46;;;;;;;10.93;4.55;;;4.80;99.90;;;;;;5062275;28;20078;-80
2024/01/19 12:15:15;;;;;;;13.70;5.53;;;4.90;99.90;;;;;;5059879;28;20034;-79
2024/01/19 12:17:40;;;;;;;13.23;5.50;;;5.00;99.90;;;;;;5058529;28;20075;-79
2024/01/19 12:20:09;;;;;;;11.05;4.95;;;5.10;99.90;;;;;;5054995;28;20029;-78
2024/01/19 12:22:36;;;;;;;10.82;4.88;;;5.20;99.90;;;;;;5058517;28;20135;-78
2024/01/19 12:25:22;;;;;;;9.70;5.03;;;5.20;99.90;;;;;;5060426;28;20082;-78
2024/01/19 12:28:02;;;;;;;8.77;4.55;;;5.30;99.90;;;;;;5056794;28;20024;-78
2024/01/19 12:30:34;;;;;;;7.88;4.10;;;5.30;99.90;;;;;;5058447;28;20111;-79
2024/01/19 12:33:21;;;;;;;7.65;4.18;;;5.30;99.90;;;;;;5056752;28;20017;-80
2024/01/19 12:35:47;;;;;;;13.50;4.20;;;5.40;99.90;;;;;;5053928;28;20025;-79
2024/01/19 12:38:15;;;;;;;9.02;4.53;;;5.50;99.90;;;;;;5067833;28;20086;-80
2024/01/19 12:40:42;;;;;;;9.52;3.95;;;5.50;99.90;;;;;;5062412;28;20040;-79
2024/01/19 12:43:08;;;;;;;11.20;4.30;;;5.50;99.90;;;;;;5051750;28;20059;-80
2024/01/19 12:45:34;;;;;;;11.30;4.68;;;5.50;99.90;;;;;;5057828;28;20020;-80
2024/01/19 12:48:00;;;;;;;11.77;4.15;;;5.50;99.90;;;;;;5050463;28;20016;-81